This is the latest recevied weather packets stored in our database for station/object PY2TED-10. If no packets are shown the sender has not sent any weather packets the latest 1 day(s).
| Time | Temp. | Humidity | Pressure | Rain* | Wind** | Luminosity | Snow |
|---|---|---|---|---|---|---|---|
| 1778094733 | 31.11° C | 46% | 996.2 hPa | 0 mm | - | - | - |
| 1778094134 | 31.11° C | 46% | 996.1 hPa | 0 mm | - | - | - |
| 1778093534 | 30.56° C | 47% | 996 hPa | 0 mm | - | - | - |
| 1778090534 | 30° C | 51% | 996.5 hPa | 0 mm | - | - | - |
| 1778089933 | 29.44° C | 52% | 996.5 hPa | 0 mm | - | - | - |
| 1778088133 | 29.44° C | 53% | 996.9 hPa | 0 mm | - | - | - |
| 1778087534 | 28.89° C | 53% | 997 hPa | 0 mm | - | - | - |
| 1778086934 | 28.89° C | 54% | 997.1 hPa | 0 mm | - | - | - |
| 1778082738 | 27.22° C | 56% | 997.9 hPa | 0 mm | - | - | - |
| 1778082733 | 27.22° C | 56% | 998 hPa | 0 mm | - | - | - |
| 1778082133 | 26.67° C | 57% | 998 hPa | 0 mm | - | - | - |
| 1778081534 | 26.67° C | 57% | 998.3 hPa | 0 mm | - | - | - |
| 1778076133 | 24.44° C | 59% | 999.5 hPa | 0 mm | - | - | - |
| 1778075533 | 24.44° C | 58% | 999.5 hPa | 0 mm | - | - | - |
| 1778074934 | 24.44° C | 58% | 999.5 hPa | 0 mm | - | - | - |
| 1778074334 | 23.89° C | 58% | 999.3 hPa | 0 mm | - | - | - |
| 1778072534 | 22.78° C | 59% | 999 hPa | 0 mm | - | - | - |
| 1778071938 | 22.78° C | 59% | 999.2 hPa | 0 mm | - | - | - |
| 1778071338 | 22.78° C | 60% | 999.2 hPa | 0 mm | - | - | - |
| 1778070738 | 22.78° C | 60% | 999.1 hPa | 0 mm | - | - | - |
| 1778070138 | 22.78° C | 59% | 999.4 hPa | 0 mm | - | - | - |
| 1778070133 | 22.78° C | 59% | 999.3 hPa | 0 mm | - | - | - |
| 1778068934 | 22.22° C | 59% | 999.2 hPa | 0 mm | - | - | - |
| 1778067140 | 22.22° C | 59% | 999 hPa | 0 mm | - | - | - |
| 1778065333 | 22.22° C | 59% | 998.7 hPa | 0 mm | - | - | - |
* Rain latest hour (hover to see other rain measurements)
** Current wind speed in m/s (hover to see current wind gust speed)